sensor_id;sensor_type;location;lat;lon;timestamp;temperature;humidity
14727;DHT22;7454;51.256;8.176;2023-03-01T00:01:05;-2.10;74.00
14727;DHT22;7454;51.256;8.176;2023-03-01T00:03:33;-2.20;73.80
14727;DHT22;7454;51.256;8.176;2023-03-01T00:05:59;-2.20;73.80
14727;DHT22;7454;51.256;8.176;2023-03-01T00:08:25;-2.20;73.80
14727;DHT22;7454;51.256;8.176;2023-03-01T00:11:01;-2.20;73.90
14727;DHT22;7454;51.256;8.176;2023-03-01T00:13:30;-2.30;74.00
14727;DHT22;7454;51.256;8.176;2023-03-01T00:15:55;-2.30;74.00
14727;DHT22;7454;51.256;8.176;2023-03-01T00:18:21;-2.20;73.90
14727;DHT22;7454;51.256;8.176;2023-03-01T00:20:54;-2.30;73.90
14727;DHT22;7454;51.256;8.176;2023-03-01T00:23:20;-2.30;73.90
14727;DHT22;7454;51.256;8.176;2023-03-01T00:25:46;-2.30;73.80
14727;DHT22;7454;51.256;8.176;2023-03-01T00:28:12;-2.30;73.80
14727;DHT22;7454;51.256;8.176;2023-03-01T00:30:37;-2.30;73.80
14727;DHT22;7454;51.256;8.176;2023-03-01T00:33:03;-2.40;73.70
14727;DHT22;7454;51.256;8.176;2023-03-01T00:35:29;-2.40;74.00
14727;DHT22;7454;51.256;8.176;2023-03-01T00:37:56;-2.50;74.00
14727;DHT22;7454;51.256;8.176;2023-03-01T00:40:30;-2.50;74.00
14727;DHT22;7454;51.256;8.176;2023-03-01T00:42:57;-2.50;74.00
14727;DHT22;7454;51.256;8.176;2023-03-01T00:45:23;-2.60;74.10
14727;DHT22;7454;51.256;8.176;2023-03-01T00:47:49;-2.60;74.00
14727;DHT22;7454;51.256;8.176;2023-03-01T00:50:15;-2.60;74.00
14727;DHT22;7454;51.256;8.176;2023-03-01T00:52:41;-2.60;74.00
14727;DHT22;7454;51.256;8.176;2023-03-01T00:55:07;-2.60;74.00
14727;DHT22;7454;51.256;8.176;2023-03-01T00:57:33;-2.60;73.90
14727;DHT22;7454;51.256;8.176;2023-03-01T00:59:59;-2.60;73.80
14727;DHT22;7454;51.256;8.176;2023-03-01T01:02:25;-2.70;74.00
14727;DHT22;7454;51.256;8.176;2023-03-01T01:04:51;-2.70;74.10
14727;DHT22;7454;51.256;8.176;2023-03-01T01:07:16;-2.70;74.00
14727;DHT22;7454;51.256;8.176;2023-03-01T01:09:42;-2.80;74.00
14727;DHT22;7454;51.256;8.176;2023-03-01T01:12:08;-2.80;74.00
14727;DHT22;7454;51.256;8.176;2023-03-01T01:14:34;-2.80;74.00
14727;DHT22;7454;51.256;8.176;2023-03-01T01:17:00;-2.80;73.90
14727;DHT22;7454;51.256;8.176;2023-03-01T01:19:26;-2.80;74.00
14727;DHT22;7454;51.256;8.176;2023-03-01T01:21:52;-2.80;74.00
14727;DHT22;7454;51.256;8.176;2023-03-01T01:24:17;-2.80;74.10
14727;DHT22;7454;51.256;8.176;2023-03-01T01:26:44;-2.80;74.00
14727;DHT22;7454;51.256;8.176;2023-03-01T01:29:10;-2.80;74.00
14727;DHT22;7454;51.256;8.176;2023-03-01T01:31:37;-2.80;74.10
14727;DHT22;7454;51.256;8.176;2023-03-01T01:34:05;-2.80;74.20
14727;DHT22;7454;51.256;8.176;2023-03-01T01:36:32;-2.80;74.00
14727;DHT22;7454;51.256;8.176;2023-03-01T01:38:58;-2.80;74.00
14727;DHT22;7454;51.256;8.176;2023-03-01T01:41:25;-2.90;73.90
14727;DHT22;7454;51.256;8.176;2023-03-01T01:47:22;-2.90;74.10
14727;DHT22;7454;51.256;8.176;2023-03-01T01:54:36;-2.90;74.00
14727;DHT22;7454;51.256;8.176;2023-03-01T01:57:07;-3.00;73.80
14727;DHT22;7454;51.256;8.176;2023-03-01T01:59:36;-3.00;73.70
14727;DHT22;7454;51.256;8.176;2023-03-01T02:02:02;-3.10;73.70
14727;DHT22;7454;51.256;8.176;2023-03-01T02:04:29;-2.90;73.80
14727;DHT22;7454;51.256;8.176;2023-03-01T02:06:58;-3.10;73.90
14727;DHT22;7454;51.256;8.176;2023-03-01T02:09:27;-3.10;74.00
14727;DHT22;7454;51.256;8.176;2023-03-01T02:11:53;-3.10;73.90
14727;DHT22;7454;51.256;8.176;2023-03-01T02:14:19;-3.10;73.80
14727;DHT22;7454;51.256;8.176;2023-03-01T02:16:44;-3.10;73.70
14727;DHT22;7454;51.256;8.176;2023-03-01T02:19:13;-3.10;73.80
14727;DHT22;7454;51.256;8.176;2023-03-01T02:21:54;-3.20;73.80
14727;DHT22;7454;51.256;8.176;2023-03-01T02:24:32;-3.20;73.80
14727;DHT22;7454;51.256;8.176;2023-03-01T02:27:55;-3.30;73.80
14727;DHT22;7454;51.256;8.176;2023-03-01T02:30:33;-3.30;73.80
14727;DHT22;7454;51.256;8.176;2023-03-01T02:32:59;-3.30;74.00
14727;DHT22;7454;51.256;8.176;2023-03-01T02:35:29;-3.20;74.00
14727;DHT22;7454;51.256;8.176;2023-03-01T02:37:58;-3.30;73.90
14727;DHT22;7454;51.256;8.176;2023-03-01T02:40:26;-3.30;73.80
14727;DHT22;7454;51.256;8.176;2023-03-01T02:42:54;-3.30;73.70
14727;DHT22;7454;51.256;8.176;2023-03-01T02:45:22;-3.30;73.60
14727;DHT22;7454;51.256;8.176;2023-03-01T02:47:48;-3.40;73.50
14727;DHT22;7454;51.256;8.176;2023-03-01T02:50:18;-3.40;73.60
14727;DHT22;7454;51.256;8.176;2023-03-01T02:53:01;-3.40;73.80
14727;DHT22;7454;51.256;8.176;2023-03-01T02:55:31;-3.40;73.80
14727;DHT22;7454;51.256;8.176;2023-03-01T02:57:57;-3.40;73.80
14727;DHT22;7454;51.256;8.176;2023-03-01T03:00:30;-3.40;73.90
14727;DHT22;7454;51.256;8.176;2023-03-01T03:03:00;-3.40;73.90
14727;DHT22;7454;51.256;8.176;2023-03-01T03:05:28;-3.40;73.90
14727;DHT22;7454;51.256;8.176;2023-03-01T03:07:58;-3.40;74.00
14727;DHT22;7454;51.256;8.176;2023-03-01T03:12:56;-3.30;73.80
14727;DHT22;7454;51.256;8.176;2023-03-01T03:15:24;-3.30;73.70
14727;DHT22;7454;51.256;8.176;2023-03-01T03:17:51;-3.40;73.60
14727;DHT22;7454;51.256;8.176;2023-03-01T03:20:18;-3.40;73.40
14727;DHT22;7454;51.256;8.176;2023-03-01T03:22:49;-3.50;73.50
14727;DHT22;7454;51.256;8.176;2023-03-01T03:25:17;-3.50;73.50
14727;DHT22;7454;51.256;8.176;2023-03-01T03:27:44;-3.50;73.30
14727;DHT22;7454;51.256;8.176;2023-03-01T03:30:11;-3.60;73.40
14727;DHT22;7454;51.256;8.176;2023-03-01T03:32:39;-3.60;73.40
14727;DHT22;7454;51.256;8.176;2023-03-01T03:35:06;-3.70;73.50
14727;DHT22;7454;51.256;8.176;2023-03-01T03:37:39;-3.60;73.60
14727;DHT22;7454;51.256;8.176;2023-03-01T03:40:24;-3.60;73.40
14727;DHT22;7454;51.256;8.176;2023-03-01T03:42:50;-3.70;73.60
14727;DHT22;7454;51.256;8.176;2023-03-01T03:45:16;-3.70;73.50
14727;DHT22;7454;51.256;8.176;2023-03-01T03:47:42;-3.70;73.60
14727;DHT22;7454;51.256;8.176;2023-03-01T03:50:12;-3.70;73.40
14727;DHT22;7454;51.256;8.176;2023-03-01T03:52:39;-3.80;73.60
14727;DHT22;7454;51.256;8.176;2023-03-01T03:55:06;-3.70;73.70
14727;DHT22;7454;51.256;8.176;2023-03-01T03:57:39;-3.80;73.50
14727;DHT22;7454;51.256;8.176;2023-03-01T04:00:06;-3.80;73.80
14727;DHT22;7454;51.256;8.176;2023-03-01T04:02:41;-3.70;74.00
14727;DHT22;7454;51.256;8.176;2023-03-01T04:05:08;-3.80;73.60
14727;DHT22;7454;51.256;8.176;2023-03-01T04:07:35;-3.80;73.70
14727;DHT22;7454;51.256;8.176;2023-03-01T04:10:02;-3.80;73.70
14727;DHT22;7454;51.256;8.176;2023-03-01T04:12:29;-3.80;73.60
14727;DHT22;7454;51.256;8.176;2023-03-01T04:14:55;-3.80;74.00
14727;DHT22;7454;51.256;8.176;2023-03-01T04:17:20;-3.80;74.00
14727;DHT22;7454;51.256;8.176;2023-03-01T04:19:46;-3.80;74.00
14727;DHT22;7454;51.256;8.176;2023-03-01T04:22:14;-3.80;74.00
14727;DHT22;7454;51.256;8.176;2023-03-01T04:24:43;-3.80;73.60
14727;DHT22;7454;51.256;8.176;2023-03-01T04:27:10;-3.80;73.70
14727;DHT22;7454;51.256;8.176;2023-03-01T04:29:35;-3.80;73.70
14727;DHT22;7454;51.256;8.176;2023-03-01T04:32:01;-3.80;73.70
14727;DHT22;7454;51.256;8.176;2023-03-01T04:34:28;-3.80;73.60
14727;DHT22;7454;51.256;8.176;2023-03-01T04:36:55;-3.90;73.60
14727;DHT22;7454;51.256;8.176;2023-03-01T04:39:21;-3.80;73.60
14727;DHT22;7454;51.256;8.176;2023-03-01T04:41:47;-4.00;73.40
14727;DHT22;7454;51.256;8.176;2023-03-01T04:44:12;-4.00;73.40
14727;DHT22;7454;51.256;8.176;2023-03-01T04:46:38;-4.00;73.40
14727;DHT22;7454;51.256;8.176;2023-03-01T04:49:04;-4.10;73.10
14727;DHT22;7454;51.256;8.176;2023-03-01T04:51:30;-4.10;73.20
14727;DHT22;7454;51.256;8.176;2023-03-01T04:53:57;-4.10;73.30
14727;DHT22;7454;51.256;8.176;2023-03-01T04:56:23;-4.10;73.30
14727;DHT22;7454;51.256;8.176;2023-03-01T04:58:49;-4.10;73.40
14727;DHT22;7454;51.256;8.176;2023-03-01T05:01:16;-4.10;73.50
14727;DHT22;7454;51.256;8.176;2023-03-01T05:03:45;-4.00;73.70
14727;DHT22;7454;51.256;8.176;2023-03-01T05:06:12;-4.00;73.60
14727;DHT22;7454;51.256;8.176;2023-03-01T05:08:38;-4.00;73.70
14727;DHT22;7454;51.256;8.176;2023-03-01T05:11:04;-3.90;73.70
14727;DHT22;7454;51.256;8.176;2023-03-01T05:13:31;-4.00;73.60
14727;DHT22;7454;51.256;8.176;2023-03-01T05:15:58;-4.00;73.60
14727;DHT22;7454;51.256;8.176;2023-03-01T05:18:25;-4.00;73.30
14727;DHT22;7454;51.256;8.176;2023-03-01T05:20:56;-4.10;73.20
14727;DHT22;7454;51.256;8.176;2023-03-01T05:23:26;-4.10;73.20
14727;DHT22;7454;51.256;8.176;2023-03-01T05:25:52;-4.20;73.20
14727;DHT22;7454;51.256;8.176;2023-03-01T05:28:18;-4.20;73.10
14727;DHT22;7454;51.256;8.176;2023-03-01T05:30:45;-4.20;73.20
14727;DHT22;7454;51.256;8.176;2023-03-01T05:33:11;-4.10;73.20
14727;DHT22;7454;51.256;8.176;2023-03-01T05:35:40;-4.20;73.20
14727;DHT22;7454;51.256;8.176;2023-03-01T05:38:07;-4.20;73.10
14727;DHT22;7454;51.256;8.176;2023-03-01T05:40:34;-4.20;73.10
14727;DHT22;7454;51.256;8.176;2023-03-01T05:43:00;-4.30;73.10
14727;DHT22;7454;51.256;8.176;2023-03-01T05:45:26;-4.30;73.00
14727;DHT22;7454;51.256;8.176;2023-03-01T05:47:52;-4.30;73.10
14727;DHT22;7454;51.256;8.176;2023-03-01T05:50:20;-4.30;73.20
14727;DHT22;7454;51.256;8.176;2023-03-01T05:52:52;-4.30;73.10
14727;DHT22;7454;51.256;8.176;2023-03-01T05:55:22;-4.20;73.20
14727;DHT22;7454;51.256;8.176;2023-03-01T05:57:48;-4.30;73.00
14727;DHT22;7454;51.256;8.176;2023-03-01T06:00:15;-4.30;73.10
14727;DHT22;7454;51.256;8.176;2023-03-01T06:02:42;-4.30;73.10
14727;DHT22;7454;51.256;8.176;2023-03-01T06:05:08;-4.30;72.90
14727;DHT22;7454;51.256;8.176;2023-03-01T06:07:34;-4.40;73.00
14727;DHT22;7454;51.256;8.176;2023-03-01T06:10:01;-4.30;73.10
14727;DHT22;7454;51.256;8.176;2023-03-01T06:12:30;-4.30;73.50
14727;DHT22;7454;51.256;8.176;2023-03-01T06:14:56;-4.30;73.40
14727;DHT22;7454;51.256;8.176;2023-03-01T06:17:22;-4.20;73.30
14727;DHT22;7454;51.256;8.176;2023-03-01T06:19:47;-4.20;73.10
14727;DHT22;7454;51.256;8.176;2023-03-01T06:22:13;-4.30;72.90
14727;DHT22;7454;51.256;8.176;2023-03-01T06:24:39;-4.30;72.90
14727;DHT22;7454;51.256;8.176;2023-03-01T06:27:04;-4.30;73.10
14727;DHT22;7454;51.256;8.176;2023-03-01T06:29:30;-4.40;73.00
14727;DHT22;7454;51.256;8.176;2023-03-01T06:31:55;-4.40;73.00
14727;DHT22;7454;51.256;8.176;2023-03-01T06:34:21;-4.40;73.10
14727;DHT22;7454;51.256;8.176;2023-03-01T06:36:47;-4.50;73.10
14727;DHT22;7454;51.256;8.176;2023-03-01T06:39:13;-4.40;73.30
14727;DHT22;7454;51.256;8.176;2023-03-01T06:41:38;-4.40;73.30
14727;DHT22;7454;51.256;8.176;2023-03-01T06:44:04;-4.40;73.40
14727;DHT22;7454;51.256;8.176;2023-03-01T06:46:30;-4.40;73.50
14727;DHT22;7454;51.256;8.176;2023-03-01T06:48:56;-4.30;73.50
14727;DHT22;7454;51.256;8.176;2023-03-01T06:51:21;-4.40;73.50
14727;DHT22;7454;51.256;8.176;2023-03-01T06:53:47;-4.30;73.50
14727;DHT22;7454;51.256;8.176;2023-03-01T06:56:12;-4.30;73.30
14727;DHT22;7454;51.256;8.176;2023-03-01T06:58:38;-4.30;73.30
14727;DHT22;7454;51.256;8.176;2023-03-01T07:01:07;-4.20;73.50
14727;DHT22;7454;51.256;8.176;2023-03-01T07:03:33;-4.30;73.30
14727;DHT22;7454;51.256;8.176;2023-03-01T07:05:58;-4.20;73.30
14727;DHT22;7454;51.256;8.176;2023-03-01T07:08:24;-4.30;73.10
14727;DHT22;7454;51.256;8.176;2023-03-01T07:10:57;-4.20;73.30
14727;DHT22;7454;51.256;8.176;2023-03-01T07:13:23;-4.20;73.30
14727;DHT22;7454;51.256;8.176;2023-03-01T07:15:49;-4.20;73.30
14727;DHT22;7454;51.256;8.176;2023-03-01T07:18:14;-4.20;73.30
14727;DHT22;7454;51.256;8.176;2023-03-01T07:20:40;-4.20;73.30
14727;DHT22;7454;51.256;8.176;2023-03-01T07:23:06;-4.10;73.30
14727;DHT22;7454;51.256;8.176;2023-03-01T07:25:32;-4.20;73.40
14727;DHT22;7454;51.256;8.176;2023-03-01T07:27:58;-3.90;73.60
14727;DHT22;7454;51.256;8.176;2023-03-01T07:30:24;-4.10;73.50
14727;DHT22;7454;51.256;8.176;2023-03-01T07:32:52;-4.10;73.60
14727;DHT22;7454;51.256;8.176;2023-03-01T07:35:18;-4.00;73.70
14727;DHT22;7454;51.256;8.176;2023-03-01T07:37:44;-4.00;73.70
14727;DHT22;7454;51.256;8.176;2023-03-01T07:40:10;-4.00;73.70
14727;DHT22;7454;51.256;8.176;2023-03-01T07:42:36;-3.90;73.90
14727;DHT22;7454;51.256;8.176;2023-03-01T07:45:01;-3.90;73.90
14727;DHT22;7454;51.256;8.176;2023-03-01T07:47:27;-3.80;74.90
14727;DHT22;7454;51.256;8.176;2023-03-01T07:49:53;-3.70;74.10
14727;DHT22;7454;51.256;8.176;2023-03-01T07:52:19;-3.70;74.40
14727;DHT22;7454;51.256;8.176;2023-03-01T07:54:44;-3.40;75.20
14727;DHT22;7454;51.256;8.176;2023-03-01T07:57:10;-3.20;75.30
14727;DHT22;7454;51.256;8.176;2023-03-01T07:59:36;-3.00;75.30
14727;DHT22;7454;51.256;8.176;2023-03-01T08:02:01;-3.00;74.30
14727;DHT22;7454;51.256;8.176;2023-03-01T08:04:27;-3.00;74.20
14727;DHT22;7454;51.256;8.176;2023-03-01T08:06:53;-3.00;74.60
14727;DHT22;7454;51.256;8.176;2023-03-01T08:09:19;-2.80;75.10
14727;DHT22;7454;51.256;8.176;2023-03-01T08:11:45;-2.70;75.00
14727;DHT22;7454;51.256;8.176;2023-03-01T08:14:11;-2.60;75.00
14727;DHT22;7454;51.256;8.176;2023-03-01T08:16:37;-2.50;75.20
14727;DHT22;7454;51.256;8.176;2023-03-01T08:19:03;-2.40;75.10
14727;DHT22;7454;51.256;8.176;2023-03-01T08:21:29;-2.40;74.80
14727;DHT22;7454;51.256;8.176;2023-03-01T08:23:55;-2.40;74.90
14727;DHT22;7454;51.256;8.176;2023-03-01T08:26:21;-2.30;75.10
14727;DHT22;7454;51.256;8.176;2023-03-01T08:28:47;-2.30;75.20
14727;DHT22;7454;51.256;8.176;2023-03-01T08:31:15;-2.10;75.30
14727;DHT22;7454;51.256;8.176;2023-03-01T08:33:42;-2.10;75.30
14727;DHT22;7454;51.256;8.176;2023-03-01T08:36:08;-2.00;75.40
14727;DHT22;7454;51.256;8.176;2023-03-01T08:38:34;-2.00;75.40
14727;DHT22;7454;51.256;8.176;2023-03-01T08:41:00;-1.80;75.30
14727;DHT22;7454;51.256;8.176;2023-03-01T08:43:27;-1.70;75.40
14727;DHT22;7454;51.256;8.176;2023-03-01T08:45:52;-1.60;75.40
14727;DHT22;7454;51.256;8.176;2023-03-01T08:48:18;-1.50;75.30
14727;DHT22;7454;51.256;8.176;2023-03-01T08:50:43;-1.40;75.20
14727;DHT22;7454;51.256;8.176;2023-03-01T08:53:09;-1.20;75.20
14727;DHT22;7454;51.256;8.176;2023-03-01T08:55:35;-1.20;75.00
14727;DHT22;7454;51.256;8.176;2023-03-01T08:58:00;-1.10;74.90
14727;DHT22;7454;51.256;8.176;2023-03-01T09:00:26;-1.00;74.90
14727;DHT22;7454;51.256;8.176;2023-03-01T09:02:51;-0.90;74.80
14727;DHT22;7454;51.256;8.176;2023-03-01T09:05:17;-0.80;74.60
14727;DHT22;7454;51.256;8.176;2023-03-01T09:07:43;-0.70;74.70
14727;DHT22;7454;51.256;8.176;2023-03-01T09:10:08;-0.70;74.60
14727;DHT22;7454;51.256;8.176;2023-03-01T09:12:35;-0.60;74.60
14727;DHT22;7454;51.256;8.176;2023-03-01T09:15:00;-0.50;74.30
14727;DHT22;7454;51.256;8.176;2023-03-01T09:17:26;-0.40;74.40
14727;DHT22;7454;51.256;8.176;2023-03-01T09:19:51;-0.40;74.30
14727;DHT22;7454;51.256;8.176;2023-03-01T09:22:17;-0.30;74.40
14727;DHT22;7454;51.256;8.176;2023-03-01T09:24:42;-0.20;74.00
14727;DHT22;7454;51.256;8.176;2023-03-01T09:27:08;-0.10;74.10
14727;DHT22;7454;51.256;8.176;2023-03-01T09:29:35;0.00;73.60
14727;DHT22;7454;51.256;8.176;2023-03-01T09:32:01;0.10;73.70
14727;DHT22;7454;51.256;8.176;2023-03-01T09:34:27;0.10;73.60
14727;DHT22;7454;51.256;8.176;2023-03-01T09:36:53;0.20;73.50
14727;DHT22;7454;51.256;8.176;2023-03-01T09:39:18;0.30;73.50
14727;DHT22;7454;51.256;8.176;2023-03-01T09:42:02;0.40;73.00
14727;DHT22;7454;51.256;8.176;2023-03-01T09:47:01;0.60;72.60
14727;DHT22;7454;51.256;8.176;2023-03-01T09:49:28;0.60;72.30
14727;DHT22;7454;51.256;8.176;2023-03-01T09:54:47;0.80;72.10
14727;DHT22;7454;51.256;8.176;2023-03-01T09:57:20;0.80;72.30
14727;DHT22;7454;51.256;8.176;2023-03-01T10:00:53;0.90;71.70
14727;DHT22;7454;51.256;8.176;2023-03-01T10:03:01;0.90;71.70
14727;DHT22;7454;51.256;8.176;2023-03-01T10:05:50;1.00;71.40
14727;DHT22;7454;51.256;8.176;2023-03-01T10:10:56;1.10;71.30
14727;DHT22;7454;51.256;8.176;2023-03-01T10:16:18;1.20;70.80
14727;DHT22;7454;51.256;8.176;2023-03-01T10:18:51;1.30;70.80
14727;DHT22;7454;51.256;8.176;2023-03-01T10:21:25;1.30;70.70
14727;DHT22;7454;51.256;8.176;2023-03-01T10:23:52;1.40;70.00
14727;DHT22;7454;51.256;8.176;2023-03-01T10:29:15;1.40;70.10
14727;DHT22;7454;51.256;8.176;2023-03-01T10:31:45;1.50;69.90
14727;DHT22;7454;51.256;8.176;2023-03-01T10:34:14;1.60;69.80
14727;DHT22;7454;51.256;8.176;2023-03-01T10:36:45;1.60;69.60
14727;DHT22;7454;51.256;8.176;2023-03-01T10:39:17;1.60;69.20
14727;DHT22;7454;51.256;8.176;2023-03-01T10:42:04;1.60;69.10
14727;DHT22;7454;51.256;8.176;2023-03-01T10:44:47;1.70;68.40
14727;DHT22;7454;51.256;8.176;2023-03-01T10:49:59;1.80;68.40
14727;DHT22;7454;51.256;8.176;2023-03-01T10:52:31;1.90;68.10
14727;DHT22;7454;51.256;8.176;2023-03-01T10:57:49;1.90;67.50
14727;DHT22;7454;51.256;8.176;2023-03-01T11:02:47;2.10;67.40
14727;DHT22;7454;51.256;8.176;2023-03-01T11:05:25;2.10;67.70
14727;DHT22;7454;51.256;8.176;2023-03-01T11:07:54;2.20;68.20
14727;DHT22;7454;51.256;8.176;2023-03-01T11:12:47;2.20;68.00
14727;DHT22;7454;51.256;8.176;2023-03-01T11:15:23;2.30;68.00
14727;DHT22;7454;51.256;8.176;2023-03-01T11:17:52;2.30;68.10
14727;DHT22;7454;51.256;8.176;2023-03-01T11:20:24;2.40;68.10
14727;DHT22;7454;51.256;8.176;2023-03-01T11:23:10;2.40;68.00
14727;DHT22;7454;51.256;8.176;2023-03-01T11:25:42;2.50;67.40
14727;DHT22;7454;51.256;8.176;2023-03-01T11:28:12;2.50;67.40
14727;DHT22;7454;51.256;8.176;2023-03-01T11:30:41;2.50;67.10
14727;DHT22;7454;51.256;8.176;2023-03-01T11:33:16;2.60;67.20
14727;DHT22;7454;51.256;8.176;2023-03-01T11:35:50;2.60;66.80
14727;DHT22;7454;51.256;8.176;2023-03-01T11:38:22;2.60;66.70
14727;DHT22;7454;51.256;8.176;2023-03-01T11:40:54;2.70;66.70
14727;DHT22;7454;51.256;8.176;2023-03-01T11:46:08;2.90;66.50
14727;DHT22;7454;51.256;8.176;2023-03-01T11:51:42;3.00;66.40
14727;DHT22;7454;51.256;8.176;2023-03-01T11:54:24;3.00;65.60
14727;DHT22;7454;51.256;8.176;2023-03-01T11:57:43;3.10;65.80
14727;DHT22;7454;51.256;8.176;2023-03-01T12:11:36;3.30;64.90
14727;DHT22;7454;51.256;8.176;2023-03-01T12:19:42;3.50;64.50
14727;DHT22;7454;51.256;8.176;2023-03-01T12:30:25;3.60;64.80
14727;DHT22;7454;51.256;8.176;2023-03-01T12:33:17;3.70;64.20
14727;DHT22;7454;51.256;8.176;2023-03-01T12:35:58;3.70;64.00
14727;DHT22;7454;51.256;8.176;2023-03-01T12:38:42;3.80;64.10
14727;DHT22;7454;51.256;8.176;2023-03-01T12:41:43;3.80;64.20
14727;DHT22;7454;51.256;8.176;2023-03-01T12:49:57;3.90;63.90
14727;DHT22;7454;51.256;8.176;2023-03-01T12:52:41;3.90;63.60
14727;DHT22;7454;51.256;8.176;2023-03-01T12:55:24;4.00;63.90
14727;DHT22;7454;51.256;8.176;2023-03-01T12:58:00;4.00;63.30
14727;DHT22;7454;51.256;8.176;2023-03-01T13:06:44;4.10;63.10
14727;DHT22;7454;51.256;8.176;2023-03-01T13:09:23;4.10;63.20
14727;DHT22;7454;51.256;8.176;2023-03-01T13:11:56;4.10;63.50
14727;DHT22;7454;51.256;8.176;2023-03-01T13:16:51;4.10;63.20
14727;DHT22;7454;51.256;8.176;2023-03-01T13:19:18;4.10;63.10
14727;DHT22;7454;51.256;8.176;2023-03-01T13:21:45;4.20;63.00
14727;DHT22;7454;51.256;8.176;2023-03-01T13:37:42;4.30;63.00
14727;DHT22;7454;51.256;8.176;2023-03-01T13:42:44;4.40;62.90
14727;DHT22;7454;51.256;8.176;2023-03-01T13:50:46;4.40;62.80
14727;DHT22;7454;51.256;8.176;2023-03-01T13:53:16;4.30;62.40
14727;DHT22;7454;51.256;8.176;2023-03-01T13:58:32;4.40;62.20
14727;DHT22;7454;51.256;8.176;2023-03-01T14:01:00;4.40;62.10
14727;DHT22;7454;51.256;8.176;2023-03-01T14:03:30;4.30;62.40
14727;DHT22;7454;51.256;8.176;2023-03-01T14:08:41;4.40;62.10
14727;DHT22;7454;51.256;8.176;2023-03-01T14:13:43;4.30;61.60
14727;DHT22;7454;51.256;8.176;2023-03-01T14:21:45;4.40;61.70
14727;DHT22;7454;51.256;8.176;2023-03-01T14:24:16;4.40;61.90
14727;DHT22;7454;51.256;8.176;2023-03-01T14:26:43;4.40;61.90
14727;DHT22;7454;51.256;8.176;2023-03-01T14:29:33;4.40;61.70
14727;DHT22;7454;51.256;8.176;2023-03-01T14:34:57;4.30;61.80
14727;DHT22;7454;51.256;8.176;2023-03-01T14:37:24;4.40;61.70
14727;DHT22;7454;51.256;8.176;2023-03-01T14:39:53;4.40;61.70
14727;DHT22;7454;51.256;8.176;2023-03-01T14:42:19;4.40;61.50
14727;DHT22;7454;51.256;8.176;2023-03-01T14:44:48;4.40;61.40
14727;DHT22;7454;51.256;8.176;2023-03-01T14:47:17;4.50;61.40
14727;DHT22;7454;51.256;8.176;2023-03-01T14:49:53;4.40;61.40
14727;DHT22;7454;51.256;8.176;2023-03-01T14:52:23;4.40;61.30
14727;DHT22;7454;51.256;8.176;2023-03-01T14:54:53;4.50;61.20
14727;DHT22;7454;51.256;8.176;2023-03-01T14:57:21;4.50;61.20
14727;DHT22;7454;51.256;8.176;2023-03-01T14:59:48;4.40;61.10
14727;DHT22;7454;51.256;8.176;2023-03-01T15:02:18;4.50;61.20
14727;DHT22;7454;51.256;8.176;2023-03-01T15:04:46;4.50;61.00
14727;DHT22;7454;51.256;8.176;2023-03-01T15:07:14;4.50;60.90
14727;DHT22;7454;51.256;8.176;2023-03-01T15:09:40;4.50;60.90
14727;DHT22;7454;51.256;8.176;2023-03-01T15:14:53;4.50;60.70
14727;DHT22;7454;51.256;8.176;2023-03-01T15:17:21;4.50;60.80
14727;DHT22;7454;51.256;8.176;2023-03-01T15:19:49;4.50;61.00
14727;DHT22;7454;51.256;8.176;2023-03-01T15:22:15;4.40;60.80
14727;DHT22;7454;51.256;8.176;2023-03-01T15:24:41;4.50;60.70
14727;DHT22;7454;51.256;8.176;2023-03-01T15:27:14;4.40;60.50
14727;DHT22;7454;51.256;8.176;2023-03-01T15:29:42;4.40;60.20
14727;DHT22;7454;51.256;8.176;2023-03-01T15:43:59;4.40;60.40
14727;DHT22;7454;51.256;8.176;2023-03-01T15:46:27;4.30;60.30
14727;DHT22;7454;51.256;8.176;2023-03-01T15:48:56;4.30;60.20
14727;DHT22;7454;51.256;8.176;2023-03-01T15:51:30;4.30;60.10
14727;DHT22;7454;51.256;8.176;2023-03-01T15:53:58;4.30;60.20
14727;DHT22;7454;51.256;8.176;2023-03-01T15:56:26;4.30;60.30
14727;DHT22;7454;51.256;8.176;2023-03-01T15:58:51;4.30;60.20
14727;DHT22;7454;51.256;8.176;2023-03-01T16:01:17;4.20;60.10
14727;DHT22;7454;51.256;8.176;2023-03-01T16:03:43;4.20;60.00
14727;DHT22;7454;51.256;8.176;2023-03-01T16:06:09;4.30;60.10
14727;DHT22;7454;51.256;8.176;2023-03-01T16:08:36;4.20;60.10
14727;DHT22;7454;51.256;8.176;2023-03-01T16:11:03;4.20;60.20
14727;DHT22;7454;51.256;8.176;2023-03-01T16:13:30;4.20;60.10
14727;DHT22;7454;51.256;8.176;2023-03-01T16:15:57;4.20;60.30
14727;DHT22;7454;51.256;8.176;2023-03-01T16:18:23;4.20;60.20
14727;DHT22;7454;51.256;8.176;2023-03-01T16:20:48;4.10;60.20
14727;DHT22;7454;51.256;8.176;2023-03-01T16:23:14;4.10;60.30
14727;DHT22;7454;51.256;8.176;2023-03-01T16:25:40;4.10;60.30
14727;DHT22;7454;51.256;8.176;2023-03-01T16:28:06;4.00;60.40
14727;DHT22;7454;51.256;8.176;2023-03-01T16:30:33;4.00;60.20
14727;DHT22;7454;51.256;8.176;2023-03-01T16:33:00;4.00;60.30
14727;DHT22;7454;51.256;8.176;2023-03-01T16:35:26;3.90;60.20
14727;DHT22;7454;51.256;8.176;2023-03-01T16:37:52;3.90;60.10
14727;DHT22;7454;51.256;8.176;2023-03-01T16:42:49;3.80;60.20
14727;DHT22;7454;51.256;8.176;2023-03-01T16:45:16;3.80;60.20
14727;DHT22;7454;51.256;8.176;2023-03-01T16:47:42;3.70;60.30
14727;DHT22;7454;51.256;8.176;2023-03-01T16:50:08;3.70;60.40
14727;DHT22;7454;51.256;8.176;2023-03-01T16:52:34;3.70;60.40
14727;DHT22;7454;51.256;8.176;2023-03-01T16:55:01;3.60;60.50
14727;DHT22;7454;51.256;8.176;2023-03-01T16:57:28;3.50;60.40
14727;DHT22;7454;51.256;8.176;2023-03-01T16:59:54;3.50;60.50
14727;DHT22;7454;51.256;8.176;2023-03-01T17:02:20;3.40;60.50
14727;DHT22;7454;51.256;8.176;2023-03-01T17:04:53;3.40;60.60
14727;DHT22;7454;51.256;8.176;2023-03-01T17:07:19;3.40;60.70
14727;DHT22;7454;51.256;8.176;2023-03-01T17:09:45;3.30;60.70
14727;DHT22;7454;51.256;8.176;2023-03-01T17:12:11;3.20;60.90
14727;DHT22;7454;51.256;8.176;2023-03-01T17:14:38;3.20;60.80
14727;DHT22;7454;51.256;8.176;2023-03-01T17:17:09;3.10;60.80
14727;DHT22;7454;51.256;8.176;2023-03-01T17:19:36;3.00;60.90
14727;DHT22;7454;51.256;8.176;2023-03-01T17:22:09;3.00;60.80
14727;DHT22;7454;51.256;8.176;2023-03-01T17:24:38;3.00;60.90
14727;DHT22;7454;51.256;8.176;2023-03-01T17:27:05;2.90;61.00
14727;DHT22;7454;51.256;8.176;2023-03-01T17:29:31;2.80;61.20
14727;DHT22;7454;51.256;8.176;2023-03-01T17:31:57;2.80;61.10
14727;DHT22;7454;51.256;8.176;2023-03-01T17:34:23;2.70;61.20
14727;DHT22;7454;51.256;8.176;2023-03-01T17:36:50;2.70;61.30
14727;DHT22;7454;51.256;8.176;2023-03-01T17:39:17;2.70;61.40
14727;DHT22;7454;51.256;8.176;2023-03-01T17:41:52;2.60;61.70
14727;DHT22;7454;51.256;8.176;2023-03-01T17:44:19;2.50;62.00
14727;DHT22;7454;51.256;8.176;2023-03-01T17:46:44;2.40;62.10
14727;DHT22;7454;51.256;8.176;2023-03-01T17:49:10;2.30;62.20
14727;DHT22;7454;51.256;8.176;2023-03-01T17:51:36;2.30;62.00
14727;DHT22;7454;51.256;8.176;2023-03-01T17:54:02;2.30;62.00
14727;DHT22;7454;51.256;8.176;2023-03-01T17:56:28;2.30;61.90
14727;DHT22;7454;51.256;8.176;2023-03-01T17:58:54;2.30;62.30
14727;DHT22;7454;51.256;8.176;2023-03-01T18:01:20;2.20;62.20
14727;DHT22;7454;51.256;8.176;2023-03-01T18:03:49;2.20;62.30
14727;DHT22;7454;51.256;8.176;2023-03-01T18:06:17;2.20;62.40
14727;DHT22;7454;51.256;8.176;2023-03-01T18:08:47;2.20;62.40
14727;DHT22;7454;51.256;8.176;2023-03-01T18:11:15;2.10;62.30
14727;DHT22;7454;51.256;8.176;2023-03-01T18:13:42;2.10;62.40
14727;DHT22;7454;51.256;8.176;2023-03-01T18:16:11;2.10;62.40